Kansas City, Missouri
Traffic Map
Current Weather Conditions
Kansas City, Missouri
Clear
Clear
36°
Feels Like: 30°
Wind Chill: 30° Ceiling: Unl
Heat Index: 36° Visibility: 10mi
Dew Point: 23° Wind: 8mph
Humidity: 59% Direction: 190° (S)
Pressure: 30.04in Gusts: 0mph
Raw Report DataKMKC 281154Z 19007KT 10SM CLR 02/M05 A3004 RMK AO2 SLP179 T00221050 10028 20000 58032
Traffic Incident Summary
Active as of:
Severity:
Category:
InformationThere was an issue retrieving the traffic information for this location. Please try a different location or try again shortly.
Advertisements
Track Severe Weather on mobile